Time;durP1;ratioP1;P1;durP2;ratioP2;P2;SDS_P1;SDS_P2;PMS_P1;PMS_P2;Temp;Humidity;BMP_temperature;BMP_pressure;BME280_temperature;BME280_humidity;BME280_pressure;Samples;Min_cycle;Max_cycle;Signal;HPM_P1;HPM_P2
2021/12/14 00:00:45;;;;;;;74.60;28.00;;;;;;;-3.41;84.00;101295.92;103613;1321;138869;-75
2021/12/14 00:03:20;;;;;;;87.80;29.70;;;;;;;-3.47;83.82;101297.71;103471;1321;95851;-77
2021/12/14 00:05:54;;;;;;;67.00;27.30;;;;;;;-3.48;83.95;101298.55;104224;1321;112484;-75
2021/12/14 00:08:31;;;;;;;82.80;29.30;;;;;;;-3.44;84.10;101300.74;104110;1321;139117;-75
2021/12/14 00:11:27;;;;;;;89.60;30.00;;;;;;;-3.41;84.25;101303.09;103786;1323;108951;-76
2021/12/14 00:14:15;;;;;;;84.20;27.80;;;;;;;-3.37;83.99;101306.33;102844;1320;139897;-74
2021/12/14 00:16:50;;;;;;;89.40;28.10;;;;;;;-3.38;83.87;101306.45;104072;1324;96060;-72
2021/12/14 00:19:22;;;;;;;73.50;26.60;;;;;;;-3.45;83.77;101312.77;102867;1320;139055;-74
2021/12/14 00:22:02;;;;;;;62.10;24.60;;;;;;;-3.52;83.47;101313.35;102854;1320;109093;-74
2021/12/14 00:24:35;;;;;;;66.00;24.60;;;;;;;-3.66;83.36;101311.38;103168;1324;140165;-75
2021/12/14 00:27:11;;;;;;;61.90;24.50;;;;;;;-3.79;83.31;101311.71;102956;1321;97849;-73
2021/12/14 00:29:46;;;;;;;62.90;25.80;;;;;;;-3.86;83.56;101311.05;102877;1321;97747;-74
2021/12/14 00:32:21;;;;;;;56.30;24.30;;;;;;;-3.85;83.92;101317.89;102793;1321;138663;-74
2021/12/14 00:34:58;;;;;;;57.20;24.30;;;;;;;-3.81;83.98;101323.65;103743;1321;109135;-75
2021/12/14 00:37:32;;;;;;;61.20;25.80;;;;;;;-3.86;83.75;101326.35;102804;1324;138288;-74
2021/12/14 00:40:13;;;;;;;61.10;24.80;;;;;;;-3.89;84.01;101324.87;103873;1320;95861;-73
2021/12/14 00:42:45;;;;;;;67.80;25.80;;;;;;;-3.87;83.98;101322.73;103042;1320;138138;-75
2021/12/14 00:45:19;;;;;;;69.70;26.50;;;;;;;-3.91;83.84;101326.48;104018;1320;112530;-73
2021/12/14 00:47:52;;;;;;;68.80;24.90;;;;;;;-3.86;84.06;101329.73;103461;1320;108980;-76
2021/12/14 00:50:27;;;;;;;68.40;25.50;;;;;;;-3.83;84.27;101330.54;103323;1320;138719;-74
2021/12/14 00:52:59;;;;;;;64.40;24.90;;;;;;;-3.81;84.22;101333.34;103364;1321;95969;-73
2021/12/14 00:55:36;;;;;;;62.80;24.40;;;;;;;-3.76;84.24;101334.59;102800;1320;138798;-75
2021/12/14 00:58:10;;;;;;;58.90;23.80;;;;;;;-3.70;84.19;101340.15;102885;1320;110897;-76
2021/12/14 01:00:46;;;;;;;67.20;22.90;;;;;;;-3.68;83.98;101344.81;103205;1324;139482;-74
2021/12/14 01:03:18;;;;;;;64.10;21.40;;;;;;;-3.78;83.48;101347.58;103050;1320;107984;-75
2021/12/14 01:05:54;;;;;;;67.80;23.30;;;;;;;-3.85;83.30;101337.59;103458;1321;98025;-74
2021/12/14 01:08:29;;;;;;;78.00;24.30;;;;;;;-3.87;83.52;101333.77;103105;1321;137790;-74
2021/12/14 01:11:07;;;;;;;82.80;24.30;;;;;;;-3.88;83.82;101332.88;102895;1320;112702;-73
2021/12/14 01:13:44;;;;;;;70.20;24.30;;;;;;;-3.94;83.56;101329.90;103877;1320;139031;-74
2021/12/14 01:16:30;;;;;;;60.10;25.10;;;;;;;-3.99;83.64;101324.41;103906;1321;108948;-74
2021/12/14 01:19:13;;;;;;;59.20;25.20;;;;;;;-4.02;83.90;101316.98;103289;1321;138912;-73
2021/12/14 01:22:13;;;;;;;60.40;24.50;;;;;;;-4.01;83.95;101315.32;102854;1321;98629;-75
2021/12/14 01:25:06;;;;;;;66.80;25.60;;;;;;;-3.98;84.01;101320.39;102808;1322;138895;-75
2021/12/14 01:27:46;;;;;;;62.00;24.20;;;;;;;-3.91;84.36;101317.98;104199;1321;107935;-75
2021/12/14 01:30:31;;;;;;;63.70;26.40;;;;;;;-3.81;84.58;101318.20;103744;1321;141717;-73
2021/12/14 01:33:06;;;;;;;69.20;26.10;;;;;;;-3.74;84.39;101318.73;103957;1322;96265;-74
2021/12/14 01:35:41;;;;;;;74.50;25.90;;;;;;;-3.67;84.37;101322.41;103669;1320;96341;-73
2021/12/14 01:38:32;;;;;;;75.80;28.00;;;;;;;-3.68;83.95;101315.58;104086;1318;138350;-73
2021/12/14 01:41:09;;;;;;;92.00;27.70;;;;;;;-3.65;84.26;101312.80;103533;1321;108158;-73
2021/12/14 01:43:48;;;;;;;82.40;26.40;;;;;;;-3.67;84.01;101308.14;102732;1321;138081;-73
2021/12/14 01:46:29;;;;;;;74.50;26.90;;;;;;;-3.71;83.83;101307.95;102940;1321;97881;-74
2021/12/14 01:49:28;;;;;;;66.50;25.30;;;;;;;-3.78;83.62;101307.33;102845;1324;138857;-73
2021/12/14 01:52:23;;;;;;;66.80;26.80;;;;;;;-3.80;83.96;101302.63;102968;1321;112635;-74
2021/12/14 01:54:59;;;;;;;71.70;27.10;;;;;;;-3.78;84.26;101297.98;102861;1321;139755;-74
2021/12/14 01:57:34;;;;;;;66.40;27.30;;;;;;;-3.74;84.35;101297.29;102918;1321;109128;-74
2021/12/14 02:00:10;;;;;;;76.90;29.40;;;;;;;-3.73;84.22;101291.91;102752;1320;139024;-73
2021/12/14 02:02:47;;;;;;;85.50;28.40;;;;;;;-3.74;84.00;101286.92;103024;1321;98373;-74
2021/12/14 02:05:23;;;;;;;86.10;28.50;;;;;;;-3.83;83.90;101287.55;103679;1321;111448;-74
2021/12/14 02:07:58;;;;;;;120.70;28.70;;;;;;;-3.89;84.03;101289.86;102745;1321;138155;-74
2021/12/14 02:10:33;;;;;;;83.50;27.40;;;;;;;-3.99;83.89;101292.15;102972;1321;108061;-74
2021/12/14 02:13:07;;;;;;;64.80;25.60;;;;;;;-4.06;83.90;101292.70;102789;1321;138973;-73
2021/12/14 02:15:42;;;;;;;70.50;26.20;;;;;;;-4.11;84.05;101295.69;102723;1323;98404;-74
2021/12/14 02:18:23;;;;;;;71.90;26.00;;;;;;;-4.20;83.89;101297.15;102804;1321;138929;-73
2021/12/14 02:20:58;;;;;;;68.20;25.60;;;;;;;-4.27;84.12;101296.03;103126;1321;109149;-74
2021/12/14 02:23:31;;;;;;;62.70;24.80;;;;;;;-4.28;84.24;101299.23;103056;1321;108211;-75
2021/12/14 02:26:07;;;;;;;74.20;24.80;;;;;;;-4.26;84.41;101296.92;102790;1324;138651;-74
2021/12/14 02:28:40;;;;;;;70.00;26.90;;;;;;;-4.23;84.64;101303.14;103646;1320;95912;-74
2021/12/14 02:31:17;;;;;;;72.90;25.40;;;;;;;-4.23;84.58;101308.23;103038;1321;139186;-74
2021/12/14 02:33:53;;;;;;;71.20;27.00;;;;;;;-4.23;84.56;101306.87;103436;1321;109069;-74
2021/12/14 02:36:31;;;;;;;72.70;27.00;;;;;;;-4.23;84.41;101305.70;102914;1321;138226;-74
2021/12/14 02:39:10;;;;;;;68.30;27.10;;;;;;;-4.27;84.35;101296.04;104223;1320;96080;-75
2021/12/14 02:41:49;;;;;;;67.90;26.70;;;;;;;-4.34;84.32;101291.79;103775;1324;96110;-75
2021/12/14 02:44:23;;;;;;;65.50;27.40;;;;;;;-4.37;84.17;101290.98;104115;1320;139414;-75
2021/12/14 02:47:00;;;;;;;70.70;27.20;;;;;;;-4.39;84.31;101282.40;103432;1321;108881;-74
2021/12/14 02:49:35;;;;;;;65.70;27.30;;;;;;;-4.38;84.21;101279.58;102745;1320;138507;-74
2021/12/14 02:52:11;;;;;;;74.70;26.80;;;;;;;-4.35;84.43;101277.30;103298;1322;96493;-74
2021/12/14 02:54:46;;;;;;;75.30;26.80;;;;;;;-4.35;84.36;101279.19;103086;1324;138036;-74
2021/12/14 02:57:24;;;;;;;61.80;23.70;;;;;;;-4.40;84.27;101278.27;103759;1320;112466;-74
2021/12/14 02:59:58;;;;;;;56.50;23.00;;;;;;;-4.46;84.05;101279.38;102973;1321;108455;-73
2021/12/14 03:02:33;;;;;;;53.50;22.70;;;;;;;-4.55;84.04;101280.15;103701;1321;139028;-73
2021/12/14 03:05:10;;;;;;;55.20;23.50;;;;;;;-4.62;84.12;101280.19;102843;1321;97991;-73
2021/12/14 03:07:45;;;;;;;49.80;22.10;;;;;;;-4.66;84.33;101279.34;103934;1321;138823;-73
2021/12/14 03:10:34;;;;;;;47.40;21.90;;;;;;;-4.66;84.44;101283.05;103062;1325;111377;-73
2021/12/14 03:13:11;;;;;;;44.50;19.60;;;;;;;-4.64;84.50;101287.39;103855;1321;139993;-74
2021/12/14 03:15:49;;;;;;;48.20;19.30;;;;;;;-4.66;84.47;101289.02;103153;1324;108875;-73
2021/12/14 03:18:26;;;;;;;58.60;21.10;;;;;;;-4.70;84.11;101291.36;103308;1320;139144;-73
2021/12/14 03:21:01;;;;;;;59.10;22.90;;;;;;;-4.74;84.16;101285.04;104051;1320;96417;-74
2021/12/14 03:23:36;;;;;;;47.60;21.40;;;;;;;-4.78;84.20;101290.46;102923;1321;112522;-73
2021/12/14 03:26:10;;;;;;;43.80;19.60;;;;;;;-4.83;84.18;101291.60;103068;1327;139274;-74
2021/12/14 03:28:49;;;;;;;52.80;20.80;;;;;;;-4.90;84.15;101291.27;103058;1320;108862;-73
2021/12/14 03:31:29;;;;;;;54.20;23.60;;;;;;;-4.93;84.27;101286.05;102831;1321;139685;-73
2021/12/14 03:34:07;;;;;;;49.90;21.90;;;;;;;-4.98;84.36;101283.96;102875;1321;97984;-72
2021/12/14 03:36:43;;;;;;;57.00;22.80;;;;;;;-5.03;84.72;101281.81;103412;1320;139075;-73
2021/12/14 03:39:20;;;;;;;62.30;22.20;;;;;;;-5.12;84.70;101279.04;104266;1321;109165;-73
2021/12/14 03:41:52;;;;;;;;;;;;;;;-5.18;84.62;101276.56;103957;1320;108932;-73
2021/12/14 03:44:27;;;;;;;72.80;23.20;;;;;;;-5.22;84.53;101281.27;103880;1320;125650;-73
2021/12/14 03:47:04;;;;;;;53.60;22.20;;;;;;;-5.26;84.70;101278.52;102752;1324;96239;-74
2021/12/14 03:49:42;;;;;;;55.30;23.30;;;;;;;-5.30;84.82;101274.77;103047;1321;138940;-73
2021/12/14 03:52:18;;;;;;;52.50;21.60;;;;;;;-5.36;84.90;101283.98;102876;1321;106965;-73
2021/12/14 03:54:54;;;;;;;49.50;22.10;;;;;;;-5.43;84.97;101280.56;102747;1322;138797;-73
2021/12/14 03:57:26;;;;;;;60.90;24.20;;;;;;;-5.47;85.06;101277.86;102798;1321;97917;-73
2021/12/14 03:59:59;;;;;;;54.90;23.90;;;;;;;-5.49;85.15;101281.52;103857;1321;95932;-74
2021/12/14 04:02:31;;;;;;;53.10;23.50;;;;;;;-5.48;85.46;101277.98;102876;1320;139273;-74
2021/12/14 04:05:11;;;;;;;59.50;23.10;;;;;;;-5.44;85.63;101271.54;103022;1321;109148;-74
2021/12/14 04:07:45;;;;;;;67.40;23.40;;;;;;;-5.44;85.75;101270.36;103163;1321;139576;-73
2021/12/14 04:10:25;;;;;;;75.90;26.80;;;;;;;-5.42;85.84;101261.80;103107;1322;97837;-74
2021/12/14 04:12:56;;;;;;;;;;;;;;;-5.43;85.96;101261.40;102953;1321;139053;-74
2021/12/14 04:15:30;;;;;;;65.60;26.30;;;;;;;-5.44;86.04;101252.02;103262;1325;112213;-74
2021/12/14 04:18:02;;;;;;;61.40;25.80;;;;;;;-5.44;85.78;101264.40;103178;1321;109014;-74
2021/12/14 04:20:38;;;;;;;57.70;25.20;;;;;;;-5.42;85.83;101268.08;103105;1320;139249;-74
2021/12/14 04:23:16;;;;;;;59.70;25.20;;;;;;;-5.41;86.19;101267.95;102919;1321;97885;-74
2021/12/14 04:25:50;;;;;;;55.60;25.80;;;;;;;-5.38;86.04;101269.30;103738;1320;139080;-75
2021/12/14 04:28:25;;;;;;;57.70;24.70;;;;;;;-5.35;85.77;101272.15;102961;1324;112604;-73
2021/12/14 04:30:58;;;;;;;57.70;25.50;;;;;;;-5.31;85.94;101277.10;103737;1321;139656;-74
2021/12/14 04:33:33;;;;;;;53.30;23.80;;;;;;;-5.30;85.78;101266.82;103622;1321;109449;-74
2021/12/14 04:36:10;;;;;;;55.60;25.40;;;;;;;-5.27;85.75;101263.21;103949;1318;97017;-73
2021/12/14 04:38:51;;;;;;;58.30;25.40;;;;;;;-5.25;85.64;101257.55;103541;1321;140417;-74
2021/12/14 04:53:00;;;;;;;57.00;25.70;;;;;;;-5.38;85.74;101259.67;102992;1321;98697;-74
2021/12/14 04:55:33;;;;;;;56.40;22.90;;;;;;;-5.40;85.54;101253.91;103910;1321;138900;-75
2021/12/14 04:58:06;;;;;;;57.70;25.50;;;;;;;-5.40;85.76;101253.08;103295;1321;108869;-73
2021/12/14 05:00:42;;;;;;;49.40;22.50;;;;;;;-5.37;85.72;101255.10;104090;1320;140617;-73
2021/12/14 05:03:27;;;;;;;47.80;22.60;;;;;;;-5.35;85.90;101260.13;103440;1320;98416;-73
2021/12/14 05:06:13;;;;;;;54.10;24.00;;;;;;;-5.37;85.73;101265.46;103563;1321;96311;-74
2021/12/14 05:11:37;;;;;;;52.60;23.80;;;;;;;-5.40;85.49;101269.70;103783;1320;108876;-73
2021/12/14 05:14:12;;;;;;;48.50;23.10;;;;;;;-5.41;85.30;101273.36;103962;1320;138758;-74
2021/12/14 05:16:53;;;;;;;51.10;23.50;;;;;;;-5.41;85.51;101270.48;103528;1321;97762;-73
2021/12/14 05:19:38;;;;;;;57.00;25.90;;;;;;;-5.40;85.53;101263.08;104088;1320;140481;-73
2021/12/14 05:22:12;;;;;;;54.10;24.80;;;;;;;-5.37;85.63;101265.27;103034;1324;111471;-74
2021/12/14 05:24:52;;;;;;;52.50;24.30;;;;;;;-5.35;85.39;101260.30;103801;1323;139746;-74
2021/12/14 05:27:31;;;;;;;49.30;23.80;;;;;;;-5.33;85.54;101257.17;103108;1325;107529;-74
2021/12/14 05:30:12;;;;;;;51.20;24.80;;;;;;;-5.28;85.64;101251.63;104139;1316;96162;-74
2021/12/14 05:33:02;;;;;;;50.40;24.70;;;;;;;-5.23;85.49;101249.69;102866;1324;138663;-74
2021/12/14 05:35:36;;;;;;;61.00;26.10;;;;;;;-5.19;85.49;101247.69;102996;1321;112467;-73
2021/12/14 05:38:13;;;;;;;55.30;25.40;;;;;;;-5.15;85.51;101247.52;102826;1321;139375;-73
2021/12/14 05:40:57;;;;;;;57.50;24.30;;;;;;;-5.14;85.30;101253.85;103082;1320;109101;-73
2021/12/14 05:43:34;;;;;;;50.20;22.60;;;;;;;-5.17;85.10;101251.53;103835;1321;139444;-75
2021/12/14 05:46:35;;;;;;;52.50;24.20;;;;;;;-5.21;84.92;101249.11;102947;1327;96519;-74
2021/12/14 05:49:24;;;;;;;54.20;24.10;;;;;;;-5.20;85.07;101251.05;103700;1321;140291;-73
2021/12/14 05:51:58;;;;;;;47.70;22.40;;;;;;;-5.16;85.38;101248.99;103018;1316;107954;-73
2021/12/14 05:54:33;;;;;;;49.90;22.50;;;;;;;-5.12;85.22;101248.87;103839;1320;109005;-73
2021/12/14 05:57:07;;;;;;;53.00;25.10;;;;;;;-5.08;85.07;101246.48;102793;1320;138119;-74
2021/12/14 05:59:39;;;;;;;57.30;25.60;;;;;;;-5.07;85.04;101242.30;103398;1321;97737;-73
2021/12/14 06:02:13;;;;;;;54.10;25.70;;;;;;;-5.05;85.15;101241.02;103302;1318;138115;-73
2021/12/14 06:04:49;;;;;;;57.80;26.20;;;;;;;-5.06;85.01;101243.89;103025;1321;109205;-73
2021/12/14 06:07:25;;;;;;;53.90;25.00;;;;;;;-5.06;84.69;101252.36;103562;1320;139501;-73
2021/12/14 06:09:58;;;;;;;52.20;25.70;;;;;;;-5.05;84.57;101254.27;103227;1321;99510;-73
2021/12/14 06:12:44;;;;;;;53.80;26.30;;;;;;;-5.01;84.71;101254.48;104039;1316;139955;-72
2021/12/14 06:15:25;;;;;;;58.20;27.20;;;;;;;-4.97;84.57;101250.59;103564;1319;111011;-73
2021/12/14 06:18:00;;;;;;;57.40;27.50;;;;;;;-4.92;84.60;101243.86;104025;1317;109035;-71
2021/12/14 06:21:01;;;;;;;61.20;27.60;;;;;;;-4.88;84.33;101240.48;102555;1320;138899;-74
2021/12/14 06:23:36;;;;;;;54.10;26.00;;;;;;;-4.88;84.27;101236.24;102879;1321;97995;-74
2021/12/14 06:26:19;;;;;;;61.60;28.40;;;;;;;-4.89;84.56;101233.46;103517;1321;137938;-75
2021/12/14 06:28:51;;;;;;;52.40;25.10;;;;;;;-4.88;84.31;101231.48;103997;1321;112529;-76
2021/12/14 06:31:26;;;;;;;52.00;25.40;;;;;;;-4.88;84.19;101225.88;102982;1321;139116;-73
2021/12/14 06:34:10;;;;;;;57.40;26.00;;;;;;;-4.88;84.09;101228.26;104236;1321;108860;-74
2021/12/14 06:37:17;;;;;;;49.70;24.60;;;;;;;-4.87;84.16;101222.02;103207;1321;179822;-73
2021/12/14 06:40:06;;;;;;;52.50;24.90;;;;;;;-4.84;84.35;101229.78;103900;1321;95981;-75
2021/12/14 06:42:41;;;;;;;59.90;26.40;;;;;;;-4.85;84.18;101230.09;103243;1320;112679;-74
2021/12/14 06:45:16;;;;;;;59.50;26.70;;;;;;;-4.83;84.18;101227.13;102873;1320;137886;-74
2021/12/14 06:47:52;;;;;;;66.90;27.90;;;;;;;-4.81;84.24;101226.18;103338;1321;108387;-74
2021/12/14 06:50:28;;;;;;;64.20;27.80;;;;;;;-4.82;84.24;101225.30;102922;1321;138263;-74
2021/12/14 06:53:05;;;;;;;64.40;29.30;;;;;;;-4.81;84.04;101226.19;103094;1321;98829;-74
2021/12/14 06:56:04;;;;;;;62.00;28.60;;;;;;;-4.81;84.02;101223.13;102423;1319;138920;-75
2021/12/14 06:58:57;;;;;;;58.20;27.40;;;;;;;-4.81;83.99;101223.13;103008;1321;108922;-74
2021/12/14 07:01:53;;;;;;;56.40;26.80;;;;;;;-4.82;84.06;101220.04;103202;1321;140210;-74
2021/12/14 07:04:29;;;;;;;60.80;27.30;;;;;;;-4.81;83.81;101220.92;102985;1327;97305;-74
2021/12/14 07:07:01;;;;;;;;;;;;;;;-4.79;84.32;101219.16;102854;1321;139857;-74
2021/12/14 07:09:39;;;;;;;66.40;29.20;;;;;;;-4.78;84.21;101213.59;103488;1320;112326;-74
2021/12/14 07:12:17;;;;;;;67.00;31.50;;;;;;;-4.76;84.21;101209.11;103418;1319;108767;-75
2021/12/14 07:15:08;;;;;;;64.70;29.90;;;;;;;-4.76;84.22;101211.17;103428;1323;139170;-74
2021/12/14 07:17:48;;;;;;;66.80;28.80;;;;;;;-4.73;84.14;101209.24;103174;1320;97886;-73
2021/12/14 07:20:32;;;;;;;61.00;28.50;;;;;;;-4.70;84.06;101205.98;103917;1320;138701;-74
2021/12/14 07:23:16;;;;;;;59.60;29.10;;;;;;;-4.62;84.26;101212.32;103402;1321;112664;-73
2021/12/14 07:25:54;;;;;;;60.50;29.70;;;;;;;-4.51;84.21;101210.57;103554;1320;138432;-73
2021/12/14 07:28:28;;;;;;;68.20;33.00;;;;;;;-4.42;84.08;101207.91;104194;1321;107399;-74
2021/12/14 07:31:04;;;;;;;67.20;29.90;;;;;;;-4.35;83.88;101204.80;103927;1323;139287;-73
2021/12/14 07:33:37;;;;;;;71.80;33.40;;;;;;;-4.33;83.51;101209.14;103363;1324;98454;-73
2021/12/14 07:36:11;;;;;;;70.00;31.20;;;;;;;-4.30;83.49;101204.56;104154;1320;112804;-73
2021/12/14 07:38:47;;;;;;;72.90;31.80;;;;;;;-4.28;83.57;101209.73;103076;1320;138278;-75
2021/12/14 07:41:26;;;;;;;62.90;28.70;;;;;;;-4.27;83.40;101210.48;102874;1321;109229;-74
2021/12/14 07:44:04;;;;;;;65.00;28.50;;;;;;;-4.28;83.65;101204.45;102963;1320;138912;-75
2021/12/14 07:46:43;;;;;;;65.30;29.30;;;;;;;-4.29;83.70;101203.59;102804;1319;97872;-74
2021/12/14 07:49:23;;;;;;;66.70;29.90;;;;;;;-4.24;83.91;101208.70;102803;1321;139164;-73
2021/12/14 07:51:58;;;;;;;69.40;31.20;;;;;;;-4.13;84.13;101205.10;102894;1320;109051;-74
2021/12/14 07:54:34;;;;;;;71.50;31.50;;;;;;;-4.02;84.23;101205.04;103000;1321;107944;-75
2021/12/14 07:57:10;;;;;;;73.30;32.40;;;;;;;-3.95;84.01;101204.83;102842;1321;139218;-74
2021/12/14 07:59:45;;;;;;;75.60;32.70;;;;;;;-3.89;83.78;101210.85;103667;1321;96345;-74
2021/12/14 08:02:22;;;;;;;73.70;31.80;;;;;;;-3.87;83.59;101214.34;103889;1323;138566;-74
2021/12/14 08:04:56;;;;;;;70.90;32.10;;;;;;;-3.81;83.77;101220.17;103962;1321;107641;-75
2021/12/14 08:07:32;;;;;;;72.80;30.90;;;;;;;-3.77;83.55;101213.56;102742;1321;139552;-75
2021/12/14 08:10:13;;;;;;;71.20;31.60;;;;;;;-3.72;83.80;101213.77;102908;1321;98316;-73
2021/12/14 08:12:48;;;;;;;77.00;32.00;;;;;;;-3.65;83.60;101210.66;104037;1321;96112;-74
2021/12/14 08:15:25;;;;;;;78.50;35.50;;;;;;;-3.59;83.47;101211.24;103780;1321;138061;-74
2021/12/14 08:18:06;;;;;;;75.70;33.90;;;;;;;-3.59;83.45;101216.15;103803;1321;108972;-74
2021/12/14 08:20:42;;;;;;;84.30;33.60;;;;;;;-3.60;83.29;101221.70;104009;1320;138407;-74
2021/12/14 08:23:18;;;;;;;83.90;35.40;;;;;;;-3.63;83.25;101221.92;102754;1321;97917;-75
2021/12/14 08:25:53;;;;;;;77.10;33.40;;;;;;;-3.63;83.53;101223.10;102743;1327;140160;-75
2021/12/14 08:28:25;;;;;;;75.60;32.70;;;;;;;-3.61;83.38;101223.19;103169;1324;112671;-73
2021/12/14 08:31:14;;;;;;;76.70;32.50;;;;;;;-3.56;83.55;101224.96;102829;1321;141899;-73
2021/12/14 08:33:53;;;;;;;73.50;33.10;;;;;;;-3.51;83.72;101221.89;102964;1323;109013;-73
2021/12/14 08:36:26;;;;;;;71.90;32.00;;;;;;;-3.48;83.69;101222.19;102945;1324;97904;-73
2021/12/14 08:39:09;;;;;;;80.00;34.10;;;;;;;-3.48;83.61;101219.46;102848;1321;137029;-73
2021/12/14 08:41:49;;;;;;;76.20;33.50;;;;;;;-3.47;83.83;101218.52;102963;1320;111418;-74
2021/12/14 08:44:34;;;;;;;76.00;31.90;;;;;;;-3.47;83.75;101218.48;102703;1321;138784;-73
2021/12/14 08:47:10;;;;;;;66.40;31.20;;;;;;;-3.48;83.83;101220.85;103021;1325;109155;-73
2021/12/14 08:49:45;;;;;;;73.50;30.70;;;;;;;-3.47;83.98;101221.40;102780;1321;139050;-74
2021/12/14 08:52:17;;;;;;;75.70;31.00;;;;;;;-3.43;83.91;101222.38;103776;1320;96126;-74
2021/12/14 08:54:49;;;;;;;74.40;31.80;;;;;;;-3.36;84.14;101220.30;103621;1321;112090;-74
2021/12/14 08:57:25;;;;;;;67.00;31.00;;;;;;;-3.27;84.25;101211.32;103746;1321;138988;-74
2021/12/14 09:00:01;;;;;;;76.30;32.70;;;;;;;-3.19;84.13;101209.77;103598;1320;108877;-75
2021/12/14 09:02:37;;;;;;;73.90;33.50;;;;;;;-3.16;83.98;101210.21;103227;1326;139770;-71
2021/12/14 09:05:14;;;;;;;79.90;34.60;;;;;;;-3.10;84.03;101206.54;103230;1320;97838;-73
2021/12/14 09:07:46;;;;;;;78.60;34.20;;;;;;;-3.09;83.67;101201.64;103919;1320;138073;-73
2021/12/14 09:10:22;;;;;;;77.60;34.10;;;;;;;-3.11;83.56;101198.83;103129;1324;109085;-74
2021/12/14 09:12:59;;;;;;;70.70;32.30;;;;;;;-3.13;83.54;101195.02;103049;1321;109125;-72
2021/12/14 09:15:39;;;;;;;68.40;29.80;;;;;;;-3.13;83.56;101197.05;103837;1319;138679;-73
2021/12/14 09:18:13;;;;;;;66.70;29.40;;;;;;;-3.13;83.57;101188.38;103187;1321;97880;-75
2021/12/14 09:20:49;;;;;;;74.80;33.30;;;;;;;-3.12;83.60;101185.53;102796;1320;138843;-73
2021/12/14 09:23:26;;;;;;;69.00;32.10;;;;;;;-3.08;83.73;101181.77;103282;1319;107661;-74
2021/12/14 09:25:58;;;;;;;70.70;31.30;;;;;;;-3.08;83.84;101182.13;103529;1326;138029;-74
2021/12/14 09:28:31;;;;;;;68.40;33.20;;;;;;;-3.08;83.74;101179.05;104247;1321;95895;-74
2021/12/14 09:31:08;;;;;;;67.80;30.40;;;;;;;-3.07;83.75;101172.80;102975;1320;97897;-74
2021/12/14 09:33:42;;;;;;;71.00;31.40;;;;;;;-3.05;83.78;101169.80;103221;1321;138453;-73
2021/12/14 09:36:15;;;;;;;71.20;31.00;;;;;;;-3.01;83.91;101164.35;103075;1324;109049;-73
2021/12/14 09:38:51;;;;;;;69.30;32.00;;;;;;;-2.97;83.79;101164.65;102797;1319;138900;-74
2021/12/14 09:41:26;;;;;;;64.60;32.20;;;;;;;-2.94;83.81;101164.42;102948;1321;97841;-74
2021/12/14 09:44:00;;;;;;;73.80;33.30;;;;;;;-2.90;83.91;101170.17;102805;1321;139223;-74
2021/12/14 09:46:32;;;;;;;73.50;33.00;;;;;;;-2.89;83.84;101164.59;102891;1320;112574;-73
2021/12/14 09:49:10;;;;;;;69.50;31.00;;;;;;;-2.90;84.04;101159.79;102944;1321;109045;-73
2021/12/14 09:51:46;;;;;;;73.00;30.80;;;;;;;-2.90;84.11;101159.27;102798;1320;138644;-74
2021/12/14 09:54:23;;;;;;;62.50;29.20;;;;;;;-2.87;84.39;101162.96;102892;1320;97940;-73
2021/12/14 09:56:59;;;;;;;68.00;30.40;;;;;;;-2.81;84.35;101159.63;102915;1326;139744;-73
2021/12/14 09:59:31;;;;;;;64.20;30.30;;;;;;;-2.74;84.46;101160.40;103373;1321;112527;-74
2021/12/14 10:02:08;;;;;;;74.30;33.00;;;;;;;-2.70;84.28;101157.64;103232;1321;138653;-73
2021/12/14 10:04:47;;;;;;;74.70;35.00;;;;;;;-2.67;84.12;101157.73;102969;1321;107787;-73
2021/12/14 10:07:22;;;;;;;82.60;34.90;;;;;;;-2.67;84.11;101150.27;102806;1321;138490;-74
2021/12/14 10:09:57;;;;;;;81.10;35.60;;;;;;;-2.67;84.31;101152.14;102978;1325;98210;-75
2021/12/14 10:12:50;;;;;;;72.70;33.20;;;;;;;-2.66;84.28;101148.95;102912;1321;111815;-75
2021/12/14 10:15:29;;;;;;;76.00;33.00;;;;;;;-2.61;84.37;101151.15;102807;1321;138097;-74
2021/12/14 10:18:06;;;;;;;73.90;31.80;;;;;;;-2.58;84.63;101151.59;102991;1321;109313;-75
2021/12/14 10:20:45;;;;;;;70.60;33.10;;;;;;;-2.54;84.58;101149.67;102698;1320;140510;-73
2021/12/14 10:23:19;;;;;;;74.40;33.40;;;;;;;-2.50;84.66;101151.58;103499;1321;97884;-74
2021/12/14 10:25:53;;;;;;;76.60;34.30;;;;;;;-2.46;84.63;101146.59;102835;1321;139934;-74
2021/12/14 10:28:29;;;;;;;81.50;36.80;;;;;;;-2.41;84.59;101147.59;103014;1320;109199;-74
2021/12/14 10:31:09;;;;;;;87.40;36.30;;;;;;;-2.39;84.73;101151.21;102915;1320;108301;-79
2021/12/14 10:33:43;;;;;;;81.60;35.90;;;;;;;-2.40;84.58;101142.17;102804;1322;138088;-74
2021/12/14 10:36:26;;;;;;;79.30;34.00;;;;;;;-2.41;84.71;101137.71;102926;1320;97889;-73
2021/12/14 10:39:08;;;;;;;81.90;35.30;;;;;;;-2.41;84.82;101139.26;102757;1321;138874;-73
2021/12/14 10:44:37;;;;;;;85.90;35.40;;;;;;;-2.35;84.68;101134.84;102623;1320;138860;-75
2021/12/14 10:47:12;;;;;;;83.00;36.40;;;;;;;-2.32;84.87;101135.30;102779;1320;98811;-75
2021/12/14 10:49:45;;;;;;;85.70;36.80;;;;;;;-2.30;84.91;101128.39;102783;1321;139205;-79
2021/12/14 10:52:20;;;;;;;90.00;36.40;;;;;;;-2.30;84.84;101126.02;102836;1320;110811;-75
2021/12/14 10:54:57;;;;;;;86.20;36.80;;;;;;;-2.30;84.91;101126.17;102913;1321;109200;-73
2021/12/14 10:57:32;;;;;;;85.80;35.80;;;;;;;-2.29;85.14;101123.83;102830;1321;139688;-74
2021/12/14 11:00:10;;;;;;;89.90;35.50;;;;;;;-2.28;84.95;101130.52;102912;1322;99554;-73
2021/12/14 11:02:43;;;;;;;90.30;37.60;;;;;;;-2.25;85.23;101127.02;102947;1321;138826;-73
2021/12/14 11:05:18;;;;;;;88.90;38.50;;;;;;;-2.25;85.22;101113.58;102776;1320;113980;-74
2021/12/14 11:07:51;;;;;;;85.80;38.60;;;;;;;-2.26;85.25;101112.84;103856;1321;138253;-75
2021/12/14 11:10:30;;;;;;;88.80;37.90;;;;;;;-2.30;85.39;101116.98;103673;1321;109414;-75
2021/12/14 11:13:06;;;;;;;83.80;34.80;;;;;;;-2.31;85.51;101118.83;102716;1321;97872;-75
2021/12/14 11:15:43;;;;;;;78.70;34.80;;;;;;;-2.30;85.34;101116.14;102729;1322;138632;-76
2021/12/14 11:18:18;;;;;;;85.80;35.70;;;;;;;-2.27;85.50;101114.52;102933;1324;112261;-76
2021/12/14 11:20:54;;;;;;;79.80;35.60;;;;;;;-2.23;85.70;101109.02;102674;1321;139829;-74
2021/12/14 11:23:30;;;;;;;75.30;34.60;;;;;;;-2.17;85.77;101113.98;102833;1320;108584;-75
2021/12/14 11:26:10;;;;;;;82.40;36.80;;;;;;;-2.11;85.61;101118.14;102707;1322;138417;-75
2021/12/14 11:28:46;;;;;;;92.90;38.60;;;;;;;-2.07;85.66;101112.10;103520;1321;97888;-74
2021/12/14 11:31:23;;;;;;;82.90;37.30;;;;;;;-2.08;85.50;101110.39;103659;1321;112782;-74
2021/12/14 11:33:59;;;;;;;79.20;36.30;;;;;;;-2.10;85.31;101105.54;103058;1320;138928;-74
2021/12/14 11:36:34;;;;;;;82.10;37.20;;;;;;;-2.12;85.45;101102.61;104023;1323;108267;-74
2021/12/14 11:39:12;;;;;;;82.40;36.30;;;;;;;-2.12;85.70;101100.20;104011;1320;139190;-74
2021/12/14 11:41:49;;;;;;;87.00;39.00;;;;;;;-2.09;85.61;101097.23;104150;1320;96113;-74
2021/12/14 11:44:27;;;;;;;87.90;37.90;;;;;;;-2.05;85.33;101101.77;104089;1324;138001;-74
2021/12/14 11:47:12;;;;;;;90.00;39.00;;;;;;;-2.02;85.71;101105.98;104140;1320;109066;-74
2021/12/14 11:49:56;;;;;;;88.40;39.10;;;;;;;-1.99;85.53;101104.17;103961;1320;139422;-77
2021/12/14 11:52:50;;;;;;;85.40;37.40;;;;;;;-1.98;85.50;101093.64;103912;1323;96291;-74
2021/12/14 11:55:38;;;;;;;85.30;37.40;;;;;;;-1.96;85.23;101095.95;103849;1320;97954;-73
2021/12/14 11:58:19;;;;;;;82.90;39.20;;;;;;;-1.91;85.43;101092.69;102953;1321;138746;-76
2021/12/14 12:00:55;;;;;;;90.30;38.80;;;;;;;-1.88;85.35;101084.11;102910;1328;109051;-74